Ken Goh — YJRV6 — position and weather

sailwx.info

Track history (hours):
 
Tides and Currents Weather Stations Pressure Air Temp Water Temp Dewpoint Dewpoint Depression Visibility Wind Speed Wind Dir Waves Ship Positions

Ken Goh

Last reported at 2018-Jun-28 00:22 UTC. Time now 2018-Jul-17 05:40 UTC.
Position N 46°17' W 125°26'.
Warning: this ship's position is 19 days out of date.

Length 171 m; draft 10.8 m.

Type: Cargo ship. MMSI: 576646000.

Date/timePositionNaut miles runAvg speedWind from/ knotsBaromVisibWave heightAir tempDewpointWater temp
2018-Jun-28 00:22N 46°17' W 125°26'1111.2
2018-Jun-27 23:21N 46°16' W 125°10'411.2
2018-Jun-27 22:58N 46°16' W 125°04'511.3
2018-Jun-27 22:31N 46°15' W 124°56'510.9
2018-Jun-27 22:01N 46°14' W 124°49'611.1
2018-Jun-27 21:30N 46°14' W 124°41'611.2
2018-Jun-27 21:01N 46°13' W 124°33'610.9
2018-Jun-27 20:28N 46°13' W 124°24'510.9
2018-Jun-27 20:00N 46°12' W 124°17'510.5
2018-Jun-27 19:31N 46°12' W 124°09'5 9.1
2018-Jun-27 19:01N 46°15' W 124°04'4 7.2
2018-Jun-27 18:30N 46°14' W 123°59'4 8.6
2018-Jun-27 18:00N 46°11' W 123°55'4 8.1
2018-Jun-27 17:31N 46°12' W 123°49'510.1
2018-Jun-27 17:01N 46°14' W 123°42'1012.0
2018-Jun-27 16:12N 46°16' W 123°29'312.5
2018-Jun-27 16:00N 46°15' W 123°26'810.1
2018-Jun-27 15:15N 46°09' W 123°19'312.8
2018-Jun-27 15:00N 46°09' W 123°15'711.9
2018-Jun-27 14:27N 46°10' W 123°06'612.7
2018-Jun-27 14:00N 46°07' W 122°59'510.0
2018-Jun-27 13:30N 46°04' W 122°53'510.1
2018-Jun-27 13:00N 45°59' W 122°51'610.9
2018-Jun-27 12:30N 45°54' W 122°48'511.2
2018-Jun-27 12:00N 45°49' W 122°48'510.3
2018-Jun-27 11:30N 45°44' W 122°46'4 9.0
2018-Jun-27 11:00N 45°39' W 122°46'1 1.0
2018-Jun-27 10:29N 45°39' W 122°46'0 0.0
2018-Jun-27 09:56N 45°39' W 122°46'0 0.0
2018-Jun-27 09:29N 45°39' W 122°46'0 0.0
2018-Jun-27 08:56N 45°39' W 122°46'0 0.0
2018-Jun-27 08:29N 45°39' W 122°46'0 0.0
2018-Jun-27 07:59N 45°39' W 122°46'0 0.0
2018-Jun-27 07:29N 45°39' W 122°46'0 0.0
2018-Jun-27 06:59N 45°39' W 122°46'0 0.0
2018-Jun-27 06:23N 45°39' W 122°46'0 0.0
2018-Jun-27 05:38N 45°39' W 122°46'0 0.0
2018-Jun-27 05:29N 45°39' W 122°46'0 0.0
2018-Jun-27 04:53N 45°39' W 122°46'0 0.0
2018-Jun-27 03:51N 45°39' W 122°46'0 0.0
2018-Jun-27 03:30N 45°39' W 122°46'0 0.0
2018-Jun-27 03:00N 45°39' W 122°46'0 0.0
2018-Jun-27 02:30N 45°39' W 122°46'0 0.0
2018-Jun-27 02:00N 45°39' W 122°46'0 0.1
2018-Jun-27 01:30N 45°39' W 122°46'0 0.0
2018-Jun-27 01:00N 45°39' W 122°46'0 0.0
2018-Jun-27 00:20N 45°39' W 122°46'0 0.1
2018-Jun-27 00:00N 45°39' W 122°46'0 0.0
2018-Jun-26 23:30N 45°39' W 122°46'0 0.0
2018-Jun-26 23:00N 45°39' W 122°46'0 0.0
2018-Jun-26 22:30N 45°39' W 122°46'0 0.1
2018-Jun-26 22:00N 45°39' W 122°46'0 0.1
2018-Jun-26 21:25N 45°39' W 122°46'0 0.1
2018-Jun-26 20:56N 45°39' W 122°46'0 0.0
2018-Jun-26 20:30N 45°39' W 122°46'0 0.1
2018-Jun-26 20:00N 45°39' W 122°46'0 0.1
2018-Jun-26 19:30N 45°39' W 122°46'0 0.1
2018-Jun-26 19:00N 45°39' W 122°46'0 0.0
2018-Jun-26 18:30N 45°39' W 122°46'0 0.0
2018-Jun-26 17:55N 45°39' W 122°46'0 0.0
2018-Jun-26 17:30N 45°39' W 122°46'0 0.0
2018-Jun-26 17:00N 45°39' W 122°46'0 0.0
2018-Jun-26 15:44N 45°39' W 122°46'0 0.2
2018-Jun-26 15:30N 45°39' W 122°46'0 0.0
2018-Jun-26 14:51N 45°39' W 122°46'0 0.1
2018-Jun-26 14:30N 45°39' W 122°46'0 0.1
2018-Jun-26 14:00N 45°39' W 122°46'0 0.0
2018-Jun-26 13:30N 45°39' W 122°46'0 0.0
2018-Jun-26 13:00N 45°39' W 122°46'0 0.0
2018-Jun-26 12:30N 45°39' W 122°46'0 0.0
2018-Jun-26 12:01N 45°39' W 122°46'0 0.1
2018-Jun-26 11:30N 45°39' W 122°46'0 0.0
2018-Jun-26 11:00N 45°39' W 122°46'0 0.1
2018-Jun-26 10:29N 45°39' W 122°46'0 0.0
2018-Jun-26 10:00N 45°39' W 122°46'0 0.0
2018-Jun-26 09:30N 45°39' W 122°46'0 0.0
2018-Jun-26 09:00N 45°39' W 122°46'0 0.1
2018-Jun-26 08:30N 45°39' W 122°46'0 0.0
2018-Jun-26 08:00N 45°39' W 122°46'0 0.1
2018-Jun-26 07:30N 45°39' W 122°46'0 0.1
2018-Jun-26 06:59N 45°39' W 122°46'0 0.0
2018-Jun-26 06:30N 45°39' W 122°46'0 0.0
2018-Jun-26 05:55N 45°39' W 122°46'0 0.1
2018-Jun-26 05:30N 45°39' W 122°46'0 0.0
2018-Jun-26 05:00N 45°39' W 122°46'0 0.1
2018-Jun-26 04:30N 45°39' W 122°46'0 0.1
2018-Jun-26 04:00N 45°39' W 122°46'0 0.1
2018-Jun-26 03:30N 45°39' W 122°46'0 0.0
2018-Jun-26 03:00N 45°39' W 122°46'0 0.0
2018-Jun-26 02:30N 45°39' W 122°46'0 0.0
2018-Jun-26 02:00N 45°39' W 122°46'0 0.1
2018-Jun-26 01:30N 45°39' W 122°46'0 0.0
2018-Jun-26 01:00N 45°39' W 122°46'0 0.1
2018-Jun-26 00:30N 45°39' W 122°46'0 0.0
2018-Jun-26 00:00N 45°39' W 122°46'0 0.0
2018-Jun-25 23:30N 45°39' W 122°46'0 0.0
2018-Jun-25 23:00N 45°39' W 122°46'0 0.0
2018-Jun-25 22:30N 45°39' W 122°46'0 0.1
2018-Jun-25 22:00N 45°39' W 122°46'0 0.0
2018-Jun-25 21:25N 45°39' W 122°46'0 0.1
2018-Jun-25 21:00N 45°39' W 122°46'0 0.0
2018-Jun-25 20:10N 45°39' W 122°46'0 0.0
2018-Jun-25 19:53N 45°39' W 122°46'0 0.1
2018-Jun-25 19:18N 45°39' W 122°46'0 0.1
2018-Jun-25 19:00N 45°39' W 122°46'0 0.1
2018-Jun-25 18:30N 45°39' W 122°46'0 0.0
2018-Jun-25 18:00N 45°39' W 122°46'0 0.1
2018-Jun-25 17:30N 45°39' W 122°46'0 0.1
2018-Jun-25 17:00N 45°39' W 122°46'0 0.0
2018-Jun-25 16:30N 45°39' W 122°46'0 0.0
2018-Jun-25 16:00N 45°39' W 122°46'0 0.0
2018-Jun-25 15:00N 45°39' W 122°46'0 0.0
2018-Jun-25 14:30N 45°39' W 122°46'0 0.1
2018-Jun-25 14:00N 45°39' W 122°46'1 2.0
2018-Jun-25 13:30N 45°40' W 122°46'1 2.1
2018-Jun-25 12:58N 45°41' W 122°46'0 0.0
2018-Jun-25 12:28N 45°41' W 122°46'0 0.0
2018-Jun-25 11:58N 45°41' W 122°46'0 0.0
2018-Jun-25 11:28N 45°41' W 122°46'0 0.0
2018-Jun-25 10:58N 45°41' W 122°46'0 0.0
2018-Jun-25 10:25N 45°41' W 122°46'0 0.0
2018-Jun-25 09:55N 45°41' W 122°46'0 0.0
2018-Jun-25 09:28N 45°41' W 122°46'0 0.0
2018-Jun-25 08:49N 45°41' W 122°46'0 0.0
2018-Jun-25 08:28N 45°41' W 122°46'0 0.0
2018-Jun-25 07:58N 45°41' W 122°46'0 0.0
2018-Jun-25 07:28N 45°41' W 122°46'0 0.0
2018-Jun-25 06:55N 45°41' W 122°46'0 0.0
2018-Jun-25 06:28N 45°41' W 122°46'0 0.0
2018-Jun-25 05:46N 45°41' W 122°46'0 0.1
2018-Jun-25 05:25N 45°41' W 122°46'0 0.0
2018-Jun-25 04:55N 45°41' W 122°46'0 0.0
2018-Jun-25 04:28N 45°41' W 122°46'0 0.0
2018-Jun-25 03:55N 45°41' W 122°46'0 0.0
2018-Jun-25 03:28N 45°41' W 122°46'0 0.0
2018-Jun-25 02:46N 45°41' W 122°46'0 0.1
2018-Jun-25 02:25N 45°41' W 122°46'0 0.0
2018-Jun-25 01:55N 45°41' W 122°46'0 0.0
2018-Jun-25 01:16N 45°41' W 122°46'0 0.0
2018-Jun-25 00:52N 45°41' W 122°46'0 0.0
2018-Jun-25 00:25N 45°41' W 122°46'0 0.0
2018-Jun-24 23:52N 45°41' W 122°46'0 0.0
2018-Jun-24 23:28N 45°41' W 122°46'0 0.0
2018-Jun-24 22:58N 45°41' W 122°46'0 0.0
2018-Jun-24 22:28N 45°41' W 122°46'0 0.0
2018-Jun-24 21:55N 45°41' W 122°46'0 0.0
2018-Jun-24 21:25N 45°41' W 122°46'0 0.0
2018-Jun-24 20:58N 45°41' W 122°46'0 0.0
2018-Jun-24 20:28N 45°41' W 122°46'0 0.0
2018-Jun-24 19:55N 45°41' W 122°46'0 0.0
2018-Jun-24 19:22N 45°41' W 122°46'0 0.0
2018-Jun-24 18:52N 45°41' W 122°46'0 0.0
2018-Jun-24 18:28N 45°41' W 122°46'0 0.0
2018-Jun-24 17:58N 45°41' W 122°46'0 0.0
2018-Jun-24 17:28N 45°41' W 122°46'0 0.0
2018-Jun-24 16:55N 45°41' W 122°46'0 0.0
2018-Jun-24 16:29N 45°41' W 122°46'0 0.0
2018-Jun-24 15:58N 45°41' W 122°46'0 0.0
2018-Jun-24 15:28N 45°41' W 122°46'0 0.0
2018-Jun-24 14:58N 45°41' W 122°46'0 0.0
2018-Jun-24 14:19N 45°41' W 122°46'0 0.0
2018-Jun-24 13:58N 45°41' W 122°46'0 0.0
2018-Jun-24 13:22N 45°41' W 122°46'0 0.0
2018-Jun-24 12:58N 45°41' W 122°46'0 0.0
2018-Jun-24 12:25N 45°41' W 122°46'0 0.0
2018-Jun-24 11:58N 45°41' W 122°46'0 0.0
2018-Jun-24 11:28N 45°41' W 122°46'0 0.0
2018-Jun-24 10:58N 45°41' W 122°46'0 0.0
2018-Jun-24 10:28N 45°41' W 122°46'0 0.0
2018-Jun-24 09:55N 45°41' W 122°46'0 0.0
2018-Jun-24 09:22N 45°41' W 122°46'0 0.0
2018-Jun-24 08:58N 45°41' W 122°46'0 0.0
2018-Jun-24 08:28N 45°41' W 122°46'0 0.0
2018-Jun-24 07:55N 45°41' W 122°46'0 0.0
2018-Jun-24 07:16N 45°41' W 122°46'0 0.0
2018-Jun-24 06:31N 45°41' W 122°46'0 0.0
2018-Jun-24 06:28N 45°41' W 122°46'0 0.0
2018-Jun-24 05:55N 45°41' W 122°46'0 0.0
2018-Jun-24 05:22N 45°41' W 122°46'0 0.0
2018-Jun-24 04:55N 45°41' W 122°46'0 0.0
2018-Jun-24 04:28N 45°41' W 122°46'0 0.0
2018-Jun-24 03:58N 45°41' W 122°46'0 0.0
2018-Jun-24 03:28N 45°41' W 122°46'0 0.0
2018-Jun-24 02:58N 45°41' W 122°46'0 0.0
2018-Jun-24 02:13N 45°41' W 122°46'0 0.0
2018-Jun-24 01:58N 45°41' W 122°46'0 0.1
2018-Jun-24 01:10N 45°41' W 122°46'0 0.2
2018-Jun-24 00:55N 45°41' W 122°46'0 0.0
2018-Jun-24 00:25N 45°41' W 122°46'0 0.0
2018-Jun-23 23:52N 45°41' W 122°46'0 0.0
2018-Jun-23 23:25N 45°41' W 122°46'0 0.0
2018-Jun-23 22:46N 45°41' W 122°46'0 0.0
2018-Jun-23 22:28N 45°41' W 122°46'0 0.1
2018-Jun-23 21:55N 45°41' W 122°46'0 0.0
2018-Jun-23 21:19N 45°41' W 122°46'0 0.1
2018-Jun-23 20:58N 45°41' W 122°46'0 0.0
2018-Jun-23 20:28N 45°41' W 122°46'0 0.1
2018-Jun-23 19:52N 45°41' W 122°46'0 0.1
2018-Jun-23 19:25N 45°41' W 122°46'0 0.1
2018-Jun-23 18:58N 45°41' W 122°46'0 0.1
2018-Jun-23 18:28N 45°41' W 122°46'0 0.0
2018-Jun-23 17:58N 45°41' W 122°46'0 0.0
2018-Jun-23 17:22N 45°41' W 122°46'0 0.0
2018-Jun-23 16:58N 45°41' W 122°46'0 0.0
2018-Jun-23 16:28N 45°41' W 122°46'0 0.1
2018-Jun-23 15:49N 45°41' W 122°46'0 0.0
2018-Jun-23 15:28N 45°41' W 122°46'0 0.1
2018-Jun-23 14:58N 45°41' W 122°46'0 0.0
2018-Jun-23 14:28N 45°41' W 122°46'0 0.0
2018-Jun-23 13:58N 45°41' W 122°46'0 0.0
2018-Jun-23 13:10N 45°41' W 122°46'0 0.2
2018-Jun-23 12:58N 45°41' W 122°46'0 0.0
2018-Jun-23 12:25N 45°41' W 122°46'0 0.1
2018-Jun-23 11:58N 45°41' W 122°46'0 0.1
2018-Jun-23 11:28N 45°41' W 122°46'0 0.1
2018-Jun-23 10:58N 45°41' W 122°46'0 0.1
2018-Jun-23 10:25N 45°41' W 122°46'0 0.0
2018-Jun-23 09:55N 45°41' W 122°46'0 0.1
2018-Jun-23 09:28N 45°41' W 122°46'0 0.0
2018-Jun-23 08:58N 45°41' W 122°46'0 0.0
2018-Jun-23 08:28N 45°41' W 122°46'0 0.0
2018-Jun-23 07:58N 45°41' W 122°46'0 0.1
2018-Jun-23 07:25N 45°41' W 122°46'0 0.1
2018-Jun-23 06:38N 45°41' W 122°46'0 0.1
2018-Jun-23 06:28N 45°41' W 122°46'0 0.1
2018-Jun-23 05:52N 45°41' W 122°46'0 0.0
2018-Jun-23 05:25N 45°41' W 122°46'0 0.0
2018-Jun-23 04:52N 45°41' W 122°46'0 0.0
2018-Jun-23 04:16N 45°41' W 122°46'0 0.0
2018-Jun-23 03:49N 45°41' W 122°46'0 0.0
2018-Jun-23 03:28N 45°41' W 122°46'0 0.0
2018-Jun-23 02:43N 45°41' W 122°46'0 0.0
2018-Jun-23 02:28N 45°41' W 122°46'0 0.0
2018-Jun-23 01:34N 45°41' W 122°46'0 0.0
2018-Jun-23 01:28N 45°41' W 122°46'0 0.0
2018-Jun-23 00:58N 45°41' W 122°46'0 0.0
2018-Jun-23 00:19N 45°41' W 122°46'0 0.0
2018-Jun-22 23:58N 45°41' W 122°46'0 0.0
2018-Jun-22 23:28N 45°41' W 122°46'0 0.0
2018-Jun-22 22:58N 45°41' W 122°46'0 0.0
2018-Jun-22 22:28N 45°41' W 122°46'0 0.0
2018-Jun-22 21:58N 45°41' W 122°46'0 0.0
2018-Jun-22 21:28N 45°41' W 122°46'0 0.0
2018-Jun-22 20:55N 45°41' W 122°46'0 0.0
2018-Jun-22 20:25N 45°41' W 122°46'0 0.0
2018-Jun-22 19:58N 45°41' W 122°46'0 0.0
2018-Jun-22 19:28N 45°41' W 122°46'0 0.0
2018-Jun-22 18:52N 45°41' W 122°46'0 0.0
2018-Jun-22 18:28N 45°41' W 122°46'0 0.0
2018-Jun-22 17:58N 45°41' W 122°46'0 0.0
2018-Jun-22 17:28N 45°41' W 122°46'0 0.0
2018-Jun-22 16:58N 45°41' W 122°46'0 0.0
2018-Jun-22 16:28N 45°41' W 122°46'0 0.0
2018-Jun-22 15:58N 45°41' W 122°46'0 0.0
2018-Jun-22 15:25N 45°41' W 122°46'0 0.0
2018-Jun-22 14:55N 45°41' W 122°46'0 0.0
2018-Jun-22 14:22N 45°41' W 122°46'0 0.0
2018-Jun-22 13:55N 45°41' W 122°46'0 0.0
2018-Jun-22 13:25N 45°41' W 122°46'0 0.0
2018-Jun-22 12:07N 45°41' W 122°46'0 0.0
2018-Jun-22 11:58N 45°41' W 122°46'0 0.0
2018-Jun-22 11:25N 45°41' W 122°46'0 0.0
2018-Jun-22 10:58N 45°41' W 122°46'0 0.0
2018-Jun-22 10:19N 45°41' W 122°46'0 0.0
2018-Jun-22 09:55N 45°41' W 122°46'0 0.0
2018-Jun-22 09:28N 45°41' W 122°46'0 0.0
2018-Jun-22 08:22N 45°41' W 122°46'0 0.0
2018-Jun-22 07:58N 45°41' W 122°46'0 0.0
2018-Jun-22 07:28N 45°41' W 122°46'0 0.0
2018-Jun-22 06:58N 45°41' W 122°46'0 0.1
2018-Jun-22 06:28N 45°41' W 122°46'0 0.0
2018-Jun-22 05:40N 45°41' W 122°46'0 0.0
2018-Jun-22 05:28N 45°41' W 122°46'0 0.1
2018-Jun-22 04:58N 45°41' W 122°46'0 0.1
2018-Jun-22 04:28N 45°41' W 122°46'0 0.0
2018-Jun-22 03:58N 45°41' W 122°46'0 0.0
2018-Jun-22 03:25N 45°41' W 122°46'0 0.0
2018-Jun-22 02:58N 45°41' W 122°46'0 0.0
2018-Jun-22 02:28N 45°41' W 122°46'0 0.0
2018-Jun-22 01:49N 45°41' W 122°46'0 0.0
2018-Jun-22 01:28N 45°41' W 122°46'0 0.0
2018-Jun-22 00:55N 45°41' W 122°46'0 0.0
2018-Jun-22 00:28N 45°41' W 122°46'0 0.0
2018-Jun-21 23:58N 45°41' W 122°46'0 0.0
2018-Jun-21 23:28N 45°41' W 122°46'0 0.1
2018-Jun-21 22:52N 45°41' W 122°46'0 0.0
2018-Jun-21 22:25N 45°41' W 122°46'0 0.0
2018-Jun-21 21:58N 45°41' W 122°46'0 0.1
2018-Jun-21 21:22N 45°41' W 122°46'0 0.1
2018-Jun-21 20:58N 45°41' W 122°46'0 0.0
2018-Jun-21 20:25N 45°41' W 122°46'0 0.0
2018-Jun-21 19:28N 45°41' W 122°46'0 0.0
2018-Jun-21 18:58N 45°41' W 122°46'0 0.1
2018-Jun-21 18:19N 45°41' W 122°46'0 0.1
2018-Jun-21 17:55N 45°41' W 122°46'0 0.0
2018-Jun-21 17:28N 45°41' W 122°46'0 0.0
2018-Jun-21 16:58N 45°41' W 122°46'0 0.0
2018-Jun-21 16:28N 45°41' W 122°46'0 0.0
2018-Jun-21 15:58N 45°41' W 122°46'0 0.0
2018-Jun-21 15:25N 45°41' W 122°46'0 0.1
2018-Jun-21 14:55N 45°41' W 122°46'0 0.1
2018-Jun-21 14:28N 45°41' W 122°46'0 0.0
2018-Jun-21 13:58N 45°41' W 122°46'0 0.0
2018-Jun-21 13:28N 45°41' W 122°46'0 0.0
2018-Jun-21 12:58N 45°41' W 122°46'0 0.1
2018-Jun-21 12:28N 45°41' W 122°46'0 0.0
2018-Jun-21 11:43N 45°41' W 122°46'0 0.2
2018-Jun-21 11:28N 45°41' W 122°46'0 0.1
2018-Jun-21 10:55N 45°41' W 122°46'0 0.1
2018-Jun-21 10:28N 45°41' W 122°46'0 0.0
2018-Jun-21 09:58N 45°41' W 122°46'0 0.0
2018-Jun-21 09:28N 45°41' W 122°46'0 0.1
2018-Jun-21 08:49N 45°41' W 122°46'0 0.0
2018-Jun-21 08:28N 45°41' W 122°46'0 0.0
2018-Jun-21 07:58N 45°41' W 122°46'0 0.0
2018-Jun-21 07:25N 45°41' W 122°46'0 0.0
2018-Jun-21 06:55N 45°41' W 122°46'0 0.0
2018-Jun-21 06:28N 45°41' W 122°46'0 0.0
2018-Jun-21 05:43N 45°41' W 122°46'0 0.0
2018-Jun-21 05:28N 45°41' W 122°46'0 0.0
2018-Jun-21 04:58N 45°41' W 122°46'0 0.0
2018-Jun-21 04:22N 45°41' W 122°46'0 0.0
2018-Jun-21 03:58N 45°41' W 122°46'0 0.0
2018-Jun-21 02:19N 45°41' W 122°46'0 0.0
2018-Jun-21 01:55N 45°41' W 122°46'0 0.0
2018-Jun-21 01:25N 45°41' W 122°46'0 0.0
2018-Jun-21 00:55N 45°41' W 122°46'0 0.0
2018-Jun-21 00:25N 45°41' W 122°46'0 0.0
2018-Jun-20 23:55N 45°41' W 122°46'0 0.0
2018-Jun-20 23:25N 45°41' W 122°46'0 0.0
2018-Jun-20 22:55N 45°41' W 122°46'0 0.0
2018-Jun-20 22:22N 45°41' W 122°46'0 0.0
2018-Jun-20 21:55N 45°41' W 122°46'0 0.0
2018-Jun-20 21:28N 45°41' W 122°46'0 0.0
2018-Jun-20 20:22N 45°41' W 122°46'0 0.0
2018-Jun-20 19:44N 45°41' W 122°46'0 0.0
2018-Jun-20 19:13N 45°41' W 122°46'0 0.0
2018-Jun-20 18:43N 45°41' W 122°46'0 0.0
2018-Jun-20 18:13N 45°41' W 122°46'0 0.0
2018-Jun-20 17:55N 45°41' W 122°46'0 0.0
2018-Jun-20 16:46N 45°41' W 122°46'0 0.0
2018-Jun-20 16:25N 45°41' W 122°46'0 0.0
2018-Jun-20 14:12N 45°41' W 122°46'0 0.0
2018-Jun-20 13:49N 45°41' W 122°46'0 0.0
2018-Jun-20 13:24N 45°41' W 122°46'0 0.0
2018-Jun-20 11:53N 45°41' W 122°46'0 0.0
2018-Jun-20 11:23N 45°41' W 122°46'0 0.0
2018-Jun-20 10:17N 45°41' W 122°46'0 0.0
2018-Jun-20 09:56N 45°41' W 122°46'0 0.0
2018-Jun-20 09:23N 45°41' W 122°46'0 0.0
2018-Jun-20 08:58N 45°41' W 122°46'0 0.0
2018-Jun-20 08:22N 45°41' W 122°46'0 0.0
2018-Jun-20 07:55N 45°41' W 122°46'0 0.0
2018-Jun-20 07:28N 45°41' W 122°46'0 0.1
2018-Jun-20 06:58N 45°41' W 122°46'0 0.0
2018-Jun-20 05:34N 45°41' W 122°46'0 0.1
2018-Jun-20 05:28N 45°41' W 122°46'0 0.0
2018-Jun-20 04:55N 45°41' W 122°46'0 0.0
2018-Jun-20 04:22N 45°41' W 122°46'0 0.0
2018-Jun-20 03:58N 45°41' W 122°46'0 0.0
2018-Jun-20 03:25N 45°41' W 122°46'0 0.0
2018-Jun-20 02:49N 45°41' W 122°46'0 0.0
2018-Jun-20 02:28N 45°41' W 122°46'0 0.0
2018-Jun-20 01:58N 45°41' W 122°46'0 0.0
2018-Jun-20 01:25N 45°41' W 122°46'0 0.0
2018-Jun-20 00:55N 45°41' W 122°46'0 0.0
2018-Jun-20 00:19N 45°41' W 122°46'0 0.0
2018-Jun-19 23:58N 45°41' W 122°46'0 0.0
2018-Jun-19 23:28N 45°41' W 122°46'0 0.0
2018-Jun-19 22:55N 45°41' W 122°46'0 0.0
2018-Jun-19 22:22N 45°41' W 122°46'0 0.0
2018-Jun-19 21:55N 45°41' W 122°46'0 0.0
2018-Jun-19 21:25N 45°41' W 122°46'0 0.0
2018-Jun-19 20:52N 45°41' W 122°46'0 0.0
2018-Jun-19 20:28N 45°41' W 122°46'0 0.0
2018-Jun-19 19:58N 45°41' W 122°46'0 0.0
2018-Jun-19 19:28N 45°41' W 122°46'0 0.0
2018-Jun-19 18:58N 45°41' W 122°46'0 0.0
2018-Jun-19 18:28N 45°41' W 122°46'0 0.0
2018-Jun-19 17:43N 45°41' W 122°46'0 0.0
2018-Jun-19 17:28N 45°41' W 122°46'0 0.0
2018-Jun-19 16:52N 45°41' W 122°46'0 0.0
2018-Jun-19 16:04N 45°41' W 122°46'0 0.0
2018-Jun-19 15:52N 45°41' W 122°46'0 0.0
2018-Jun-19 15:13N 45°41' W 122°46'0 0.0
2018-Jun-19 14:58N 45°41' W 122°46'0 0.0
2018-Jun-19 14:19N 45°41' W 122°46'0 0.0
2018-Jun-19 13:40N 45°41' W 122°46'0 0.0
2018-Jun-19 13:28N 45°41' W 122°46'0 0.0
2018-Jun-19 12:55N 45°41' W 122°46'0 0.0
2018-Jun-19 12:22N 45°41' W 122°46'0 0.0
2018-Jun-19 11:49N 45°41' W 122°46'0 0.0
2018-Jun-19 11:19N 45°41' W 122°46'0 0.0
2018-Jun-19 10:55N 45°41' W 122°46'0 0.0
2018-Jun-19 10:22N 45°41' W 122°46'0 0.0
2018-Jun-19 09:52N 45°41' W 122°46'0 0.0
2018-Jun-19 09:28N 45°41' W 122°46'0 0.0
2018-Jun-19 08:58N 45°41' W 122°46'0 0.0
2018-Jun-19 08:25N 45°41' W 122°46'0 0.0
2018-Jun-19 07:58N 45°41' W 122°46'0 0.0
2018-Jun-19 07:28N 45°41' W 122°46'0 0.0
2018-Jun-19 06:58N 45°41' W 122°46'0 0.0
2018-Jun-19 06:28N 45°41' W 122°46'0 0.1
2018-Jun-19 05:58N 45°41' W 122°46'0 0.1
2018-Jun-19 05:28N 45°41' W 122°46'0 0.1
2018-Jun-19 04:58N 45°41' W 122°46'0 0.0
2018-Jun-19 04:28N 45°41' W 122°46'0 0.1
2018-Jun-19 03:58N 45°41' W 122°46'0 0.0
2018-Jun-19 03:28N 45°41' W 122°46'0 0.0
2018-Jun-19 02:49N 45°41' W 122°46'0 0.0
2018-Jun-19 02:28N 45°41' W 122°46'0 0.0
2018-Jun-19 01:55N 45°41' W 122°46'0 0.0
2018-Jun-19 01:28N 45°41' W 122°46'0 0.0
2018-Jun-19 00:58N 45°41' W 122°46'0 0.0
2018-Jun-19 00:28N 45°41' W 122°46'0 0.0
2018-Jun-18 23:52N 45°41' W 122°46'0 0.0
2018-Jun-18 23:25N 45°41' W 122°46'0 0.0
2018-Jun-18 22:58N 45°41' W 122°46'0 0.0
2018-Jun-18 22:25N 45°41' W 122°46'0 0.0
2018-Jun-18 21:58N 45°41' W 122°46'0 0.0
2018-Jun-18 21:13N 45°41' W 122°46'0 0.0
2018-Jun-18 20:55N 45°41' W 122°46'0 0.0
2018-Jun-18 20:28N 45°41' W 122°46'0 0.0
2018-Jun-18 19:55N 45°41' W 122°46'0 0.0
2018-Jun-18 19:28N 45°41' W 122°46'0 0.0
2018-Jun-18 18:58N 45°41' W 122°46'0 0.0
2018-Jun-18 18:25N 45°41' W 122°46'0 0.0
2018-Jun-18 17:58N 45°41' W 122°46'0 0.0
2018-Jun-18 17:13N 45°41' W 122°46'0 0.0
2018-Jun-18 16:55N 45°41' W 122°46'0 0.0
2018-Jun-18 16:28N 45°41' W 122°46'0 0.0
2018-Jun-18 15:55N 45°41' W 122°46'0 0.0
2018-Jun-18 15:28N 45°41' W 122°46'0 0.0
2018-Jun-18 14:49N 45°41' W 122°46'0 0.0
2018-Jun-18 14:22N 45°41' W 122°46'0 0.0
2018-Jun-18 13:58N 45°41' W 122°46'0 0.0
2018-Jun-18 13:25N 45°41' W 122°46'0 0.0
2018-Jun-18 12:58N 45°41' W 122°46'0 0.0
2018-Jun-18 12:28N 45°41' W 122°46'0 0.0
2018-Jun-18 11:52N 45°41' W 122°46'0 0.0
2018-Jun-18 11:25N 45°41' W 122°46'0 0.0
2018-Jun-18 10:55N 45°41' W 122°46'0 0.0
2018-Jun-18 10:22N 45°41' W 122°46'0 0.0
2018-Jun-18 09:58N 45°41' W 122°46'0 0.0
2018-Jun-18 09:22N 45°41' W 122°46'0 0.0
2018-Jun-18 08:58N 45°41' W 122°46'0 0.0
2018-Jun-18 08:22N 45°41' W 122°46'0 0.0
2018-Jun-18 07:52N 45°41' W 122°46'0 0.0
2018-Jun-18 07:25N 45°41' W 122°46'0 0.0
2018-Jun-18 06:58N 45°41' W 122°46'0 0.0
2018-Jun-18 06:25N 45°41' W 122°46'0 0.0
2018-Jun-18 05:58N 45°41' W 122°46'0 0.0
2018-Jun-18 05:25N 45°41' W 122°46'0 0.0
2018-Jun-18 04:58N 45°41' W 122°46'0 0.0
2018-Jun-18 04:28N 45°41' W 122°46'0 0.0
2018-Jun-18 03:58N 45°41' W 122°46'0 0.0
2018-Jun-18 03:25N 45°41' W 122°46'0 0.0
2018-Jun-18 02:58N 45°41' W 122°46'0 0.0
2018-Jun-18 02:19N 45°41' W 122°46'0 0.0
2018-Jun-18 01:55N 45°41' W 122°46'0 0.0
2018-Jun-18 01:22N 45°41' W 122°46'0 0.1
2018-Jun-18 00:58N 45°41' W 122°46'0 0.1
2018-Jun-18 00:22N 45°41' W 122°46'  
Track history (hours):
 
Tides and Currents Weather Stations Pressure Air Temp Water Temp Dewpoint Dewpoint Depression Visibility Wind Speed Wind Dir Waves Ship Positions

Ken Goh

Last reported at 2018-Jun-28 00:22 UTC. Time now 2018-Jul-17 05:40 UTC.
Position N 46°17' W 125°26'.
Warning: this ship's position is 19 days out of date.

Length 171 m; draft 10.8 m.

Type: Cargo ship. MMSI: 576646000.

Date/timePositionNaut miles runAvg speedWind from/ knotsBaromVisibWave heightAir tempDewpointWater temp
2018-Jun-28 00:22N 46°17' W 125°26'1111.2
2018-Jun-27 23:21N 46°16' W 125°10'411.2
2018-Jun-27 22:58N 46°16' W 125°04'511.3
2018-Jun-27 22:31N 46°15' W 124°56'510.9
2018-Jun-27 22:01N 46°14' W 124°49'611.1
2018-Jun-27 21:30N 46°14' W 124°41'611.2
2018-Jun-27 21:01N 46°13' W 124°33'610.9
2018-Jun-27 20:28N 46°13' W 124°24'510.9
2018-Jun-27 20:00N 46°12' W 124°17'510.5
2018-Jun-27 19:31N 46°12' W 124°09'5 9.1
2018-Jun-27 19:01N 46°15' W 124°04'4 7.2
2018-Jun-27 18:30N 46°14' W 123°59'4 8.6
2018-Jun-27 18:00N 46°11' W 123°55'4 8.1
2018-Jun-27 17:31N 46°12' W 123°49'510.1
2018-Jun-27 17:01N 46°14' W 123°42'1012.0
2018-Jun-27 16:12N 46°16' W 123°29'312.5
2018-Jun-27 16:00N 46°15' W 123°26'810.1
2018-Jun-27 15:15N 46°09' W 123°19'312.8
2018-Jun-27 15:00N 46°09' W 123°15'711.9
2018-Jun-27 14:27N 46°10' W 123°06'612.7
2018-Jun-27 14:00N 46°07' W 122°59'510.0
2018-Jun-27 13:30N 46°04' W 122°53'510.1
2018-Jun-27 13:00N 45°59' W 122°51'610.9
2018-Jun-27 12:30N 45°54' W 122°48'511.2
2018-Jun-27 12:00N 45°49' W 122°48'510.3
2018-Jun-27 11:30N 45°44' W 122°46'4 9.0
2018-Jun-27 11:00N 45°39' W 122°46'1 1.0
2018-Jun-27 10:29N 45°39' W 122°46'0 0.0
2018-Jun-27 09:56N 45°39' W 122°46'0 0.0
2018-Jun-27 09:29N 45°39' W 122°46'0 0.0
2018-Jun-27 08:56N 45°39' W 122°46'0 0.0
2018-Jun-27 08:29N 45°39' W 122°46'0 0.0
2018-Jun-27 07:59N 45°39' W 122°46'0 0.0
2018-Jun-27 07:29N 45°39' W 122°46'0 0.0
2018-Jun-27 06:59N 45°39' W 122°46'0 0.0
2018-Jun-27 06:23N 45°39' W 122°46'0 0.0
2018-Jun-27 05:38N 45°39' W 122°46'0 0.0
2018-Jun-27 05:29N 45°39' W 122°46'0 0.0
2018-Jun-27 04:53N 45°39' W 122°46'0 0.0
2018-Jun-27 03:51N 45°39' W 122°46'0 0.0
2018-Jun-27 03:30N 45°39' W 122°46'0 0.0
2018-Jun-27 03:00N 45°39' W 122°46'0 0.0
2018-Jun-27 02:30N 45°39' W 122°46'0 0.0
2018-Jun-27 02:00N 45°39' W 122°46'0 0.1
2018-Jun-27 01:30N 45°39' W 122°46'0 0.0
2018-Jun-27 01:00N 45°39' W 122°46'0 0.0
2018-Jun-27 00:20N 45°39' W 122°46'0 0.1
2018-Jun-27 00:00N 45°39' W 122°46'0 0.0
2018-Jun-26 23:30N 45°39' W 122°46'0 0.0
2018-Jun-26 23:00N 45°39' W 122°46'0 0.0
2018-Jun-26 22:30N 45°39' W 122°46'0 0.1
2018-Jun-26 22:00N 45°39' W 122°46'0 0.1
2018-Jun-26 21:25N 45°39' W 122°46'0 0.1
2018-Jun-26 20:56N 45°39' W 122°46'0 0.0
2018-Jun-26 20:30N 45°39' W 122°46'0 0.1
2018-Jun-26 20:00N 45°39' W 122°46'0 0.1
2018-Jun-26 19:30N 45°39' W 122°46'0 0.1
2018-Jun-26 19:00N 45°39' W 122°46'0 0.0
2018-Jun-26 18:30N 45°39' W 122°46'0 0.0
2018-Jun-26 17:55N 45°39' W 122°46'0 0.0
2018-Jun-26 17:30N 45°39' W 122°46'0 0.0
2018-Jun-26 17:00N 45°39' W 122°46'0 0.0
2018-Jun-26 15:44N 45°39' W 122°46'0 0.2
2018-Jun-26 15:30N 45°39' W 122°46'0 0.0
2018-Jun-26 14:51N 45°39' W 122°46'0 0.1
2018-Jun-26 14:30N 45°39' W 122°46'0 0.1
2018-Jun-26 14:00N 45°39' W 122°46'0 0.0
2018-Jun-26 13:30N 45°39' W 122°46'0 0.0
2018-Jun-26 13:00N 45°39' W 122°46'0 0.0
2018-Jun-26 12:30N 45°39' W 122°46'0 0.0
2018-Jun-26 12:01N 45°39' W 122°46'0 0.1
2018-Jun-26 11:30N 45°39' W 122°46'0 0.0
2018-Jun-26 11:00N 45°39' W 122°46'0 0.1
2018-Jun-26 10:29N 45°39' W 122°46'0 0.0
2018-Jun-26 10:00N 45°39' W 122°46'0 0.0
2018-Jun-26 09:30N 45°39' W 122°46'0 0.0
2018-Jun-26 09:00N 45°39' W 122°46'0 0.1
2018-Jun-26 08:30N 45°39' W 122°46'0 0.0
2018-Jun-26 08:00N 45°39' W 122°46'0 0.1
2018-Jun-26 07:30N 45°39' W 122°46'0 0.1
2018-Jun-26 06:59N 45°39' W 122°46'0 0.0
2018-Jun-26 06:30N 45°39' W 122°46'0 0.0
2018-Jun-26 05:55N 45°39' W 122°46'0 0.1
2018-Jun-26 05:30N 45°39' W 122°46'0 0.0
2018-Jun-26 05:00N 45°39' W 122°46'0 0.1
2018-Jun-26 04:30N 45°39' W 122°46'0 0.1
2018-Jun-26 04:00N 45°39' W 122°46'0 0.1
2018-Jun-26 03:30N 45°39' W 122°46'0 0.0
2018-Jun-26 03:00N 45°39' W 122°46'0 0.0
2018-Jun-26 02:30N 45°39' W 122°46'0 0.0
2018-Jun-26 02:00N 45°39' W 122°46'0 0.1
2018-Jun-26 01:30N 45°39' W 122°46'0 0.0
2018-Jun-26 01:00N 45°39' W 122°46'0 0.1
2018-Jun-26 00:30N 45°39' W 122°46'0 0.0
2018-Jun-26 00:00N 45°39' W 122°46'0 0.0
2018-Jun-25 23:30N 45°39' W 122°46'0 0.0
2018-Jun-25 23:00N 45°39' W 122°46'0 0.0
2018-Jun-25 22:30N 45°39' W 122°46'0 0.1
2018-Jun-25 22:00N 45°39' W 122°46'0 0.0
2018-Jun-25 21:25N 45°39' W 122°46'0 0.1
2018-Jun-25 21:00N 45°39' W 122°46'0 0.0
2018-Jun-25 20:10N 45°39' W 122°46'0 0.0
2018-Jun-25 19:53N 45°39' W 122°46'0 0.1
2018-Jun-25 19:18N 45°39' W 122°46'0 0.1
2018-Jun-25 19:00N 45°39' W 122°46'0 0.1
2018-Jun-25 18:30N 45°39' W 122°46'0 0.0
2018-Jun-25 18:00N 45°39' W 122°46'0 0.1
2018-Jun-25 17:30N 45°39' W 122°46'0 0.1
2018-Jun-25 17:00N 45°39' W 122°46'0 0.0
2018-Jun-25 16:30N 45°39' W 122°46'0 0.0
2018-Jun-25 16:00N 45°39' W 122°46'0 0.0
2018-Jun-25 15:00N 45°39' W 122°46'0 0.0
2018-Jun-25 14:30N 45°39' W 122°46'0 0.1
2018-Jun-25 14:00N 45°39' W 122°46'1 2.0
2018-Jun-25 13:30N 45°40' W 122°46'1 2.1
2018-Jun-25 12:58N 45°41' W 122°46'0 0.0
2018-Jun-25 12:28N 45°41' W 122°46'0 0.0
2018-Jun-25 11:58N 45°41' W 122°46'0 0.0
2018-Jun-25 11:28N 45°41' W 122°46'0 0.0
2018-Jun-25 10:58N 45°41' W 122°46'0 0.0
2018-Jun-25 10:25N 45°41' W 122°46'0 0.0
2018-Jun-25 09:55N 45°41' W 122°46'0 0.0
2018-Jun-25 09:28N 45°41' W 122°46'0 0.0
2018-Jun-25 08:49N 45°41' W 122°46'0 0.0
2018-Jun-25 08:28N 45°41' W 122°46'0 0.0
2018-Jun-25 07:58N 45°41' W 122°46'0 0.0
2018-Jun-25 07:28N 45°41' W 122°46'0 0.0
2018-Jun-25 06:55N 45°41' W 122°46'0 0.0
2018-Jun-25 06:28N 45°41' W 122°46'0 0.0
2018-Jun-25 05:46N 45°41' W 122°46'0 0.1
2018-Jun-25 05:25N 45°41' W 122°46'0 0.0
2018-Jun-25 04:55N 45°41' W 122°46'0 0.0
2018-Jun-25 04:28N 45°41' W 122°46'0 0.0
2018-Jun-25 03:55N 45°41' W 122°46'0 0.0
2018-Jun-25 03:28N 45°41' W 122°46'0 0.0
2018-Jun-25 02:46N 45°41' W 122°46'0 0.1
2018-Jun-25 02:25N 45°41' W 122°46'0 0.0
2018-Jun-25 01:55N 45°41' W 122°46'0 0.0
2018-Jun-25 01:16N 45°41' W 122°46'0 0.0
2018-Jun-25 00:52N 45°41' W 122°46'0 0.0
2018-Jun-25 00:25N 45°41' W 122°46'0 0.0
2018-Jun-24 23:52N 45°41' W 122°46'0 0.0
2018-Jun-24 23:28N 45°41' W 122°46'0 0.0
2018-Jun-24 22:58N 45°41' W 122°46'0 0.0
2018-Jun-24 22:28N 45°41' W 122°46'0 0.0
2018-Jun-24 21:55N 45°41' W 122°46'0 0.0
2018-Jun-24 21:25N 45°41' W 122°46'0 0.0
2018-Jun-24 20:58N 45°41' W 122°46'0 0.0
2018-Jun-24 20:28N 45°41' W 122°46'0 0.0
2018-Jun-24 19:55N 45°41' W 122°46'0 0.0
2018-Jun-24 19:22N 45°41' W 122°46'0 0.0
2018-Jun-24 18:52N 45°41' W 122°46'0 0.0
2018-Jun-24 18:28N 45°41' W 122°46'0 0.0
2018-Jun-24 17:58N 45°41' W 122°46'0 0.0
2018-Jun-24 17:28N 45°41' W 122°46'0 0.0
2018-Jun-24 16:55N 45°41' W 122°46'0 0.0
2018-Jun-24 16:29N 45°41' W 122°46'0 0.0
2018-Jun-24 15:58N 45°41' W 122°46'0 0.0
2018-Jun-24 15:28N 45°41' W 122°46'0 0.0
2018-Jun-24 14:58N 45°41' W 122°46'0 0.0
2018-Jun-24 14:19N 45°41' W 122°46'0 0.0
2018-Jun-24 13:58N 45°41' W 122°46'0 0.0
2018-Jun-24 13:22N 45°41' W 122°46'0 0.0
2018-Jun-24 12:58N 45°41' W 122°46'0 0.0
2018-Jun-24 12:25N 45°41' W 122°46'0 0.0
2018-Jun-24 11:58N 45°41' W 122°46'0 0.0
2018-Jun-24 11:28N 45°41' W 122°46'0 0.0
2018-Jun-24 10:58N 45°41' W 122°46'0 0.0
2018-Jun-24 10:28N 45°41' W 122°46'0 0.0
2018-Jun-24 09:55N 45°41' W 122°46'0 0.0
2018-Jun-24 09:22N 45°41' W 122°46'0 0.0
2018-Jun-24 08:58N 45°41' W 122°46'0 0.0
2018-Jun-24 08:28N 45°41' W 122°46'0 0.0
2018-Jun-24 07:55N 45°41' W 122°46'0 0.0
2018-Jun-24 07:16N 45°41' W 122°46'0 0.0
2018-Jun-24 06:31N 45°41' W 122°46'0 0.0
2018-Jun-24 06:28N 45°41' W 122°46'0 0.0
2018-Jun-24 05:55N 45°41' W 122°46'0 0.0
2018-Jun-24 05:22N 45°41' W 122°46'0 0.0
2018-Jun-24 04:55N 45°41' W 122°46'0 0.0
2018-Jun-24 04:28N 45°41' W 122°46'0 0.0
2018-Jun-24 03:58N 45°41' W 122°46'0 0.0
2018-Jun-24 03:28N 45°41' W 122°46'0 0.0
2018-Jun-24 02:58N 45°41' W 122°46'0 0.0
2018-Jun-24 02:13N 45°41' W 122°46'0 0.0
2018-Jun-24 01:58N 45°41' W 122°46'0 0.1
2018-Jun-24 01:10N 45°41' W 122°46'0 0.2
2018-Jun-24 00:55N 45°41' W 122°46'0 0.0
2018-Jun-24 00:25N 45°41' W 122°46'0 0.0
2018-Jun-23 23:52N 45°41' W 122°46'0 0.0
2018-Jun-23 23:25N 45°41' W 122°46'0 0.0
2018-Jun-23 22:46N 45°41' W 122°46'0 0.0
2018-Jun-23 22:28N 45°41' W 122°46'0 0.1
2018-Jun-23 21:55N 45°41' W 122°46'0 0.0
2018-Jun-23 21:19N 45°41' W 122°46'0 0.1
2018-Jun-23 20:58N 45°41' W 122°46'0 0.0
2018-Jun-23 20:28N 45°41' W 122°46'0 0.1
2018-Jun-23 19:52N 45°41' W 122°46'0 0.1
2018-Jun-23 19:25N 45°41' W 122°46'0 0.1
2018-Jun-23 18:58N 45°41' W 122°46'0 0.1
2018-Jun-23 18:28N 45°41' W 122°46'0 0.0
2018-Jun-23 17:58N 45°41' W 122°46'0 0.0
2018-Jun-23 17:22N 45°41' W 122°46'0 0.0
2018-Jun-23 16:58N 45°41' W 122°46'0 0.0
2018-Jun-23 16:28N 45°41' W 122°46'0 0.1
2018-Jun-23 15:49N 45°41' W 122°46'0 0.0
2018-Jun-23 15:28N 45°41' W 122°46'0 0.1
2018-Jun-23 14:58N 45°41' W 122°46'0 0.0
2018-Jun-23 14:28N 45°41' W 122°46'0 0.0
2018-Jun-23 13:58N 45°41' W 122°46'0 0.0
2018-Jun-23 13:10N 45°41' W 122°46'0 0.2
2018-Jun-23 12:58N 45°41' W 122°46'0 0.0
2018-Jun-23 12:25N 45°41' W 122°46'0 0.1
2018-Jun-23 11:58N 45°41' W 122°46'0 0.1
2018-Jun-23 11:28N 45°41' W 122°46'0 0.1
2018-Jun-23 10:58N 45°41' W 122°46'0 0.1
2018-Jun-23 10:25N 45°41' W 122°46'0 0.0
2018-Jun-23 09:55N 45°41' W 122°46'0 0.1
2018-Jun-23 09:28N 45°41' W 122°46'0 0.0
2018-Jun-23 08:58N 45°41' W 122°46'0 0.0
2018-Jun-23 08:28N 45°41' W 122°46'0 0.0
2018-Jun-23 07:58N 45°41' W 122°46'0 0.1
2018-Jun-23 07:25N 45°41' W 122°46'0 0.1
2018-Jun-23 06:38N 45°41' W 122°46'0 0.1
2018-Jun-23 06:28N 45°41' W 122°46'0 0.1
2018-Jun-23 05:52N 45°41' W 122°46'0 0.0
2018-Jun-23 05:25N 45°41' W 122°46'0 0.0
2018-Jun-23 04:52N 45°41' W 122°46'0 0.0
2018-Jun-23 04:16N 45°41' W 122°46'0 0.0
2018-Jun-23 03:49N 45°41' W 122°46'0 0.0
2018-Jun-23 03:28N 45°41' W 122°46'0 0.0
2018-Jun-23 02:43N 45°41' W 122°46'0 0.0
2018-Jun-23 02:28N 45°41' W 122°46'0 0.0
2018-Jun-23 01:34N 45°41' W 122°46'0 0.0
2018-Jun-23 01:28N 45°41' W 122°46'0 0.0
2018-Jun-23 00:58N 45°41' W 122°46'0 0.0
2018-Jun-23 00:19N 45°41' W 122°46'0 0.0
2018-Jun-22 23:58N 45°41' W 122°46'0 0.0
2018-Jun-22 23:28N 45°41' W 122°46'0 0.0
2018-Jun-22 22:58N 45°41' W 122°46'0 0.0
2018-Jun-22 22:28N 45°41' W 122°46'0 0.0
2018-Jun-22 21:58N 45°41' W 122°46'0 0.0
2018-Jun-22 21:28N 45°41' W 122°46'0 0.0
2018-Jun-22 20:55N 45°41' W 122°46'0 0.0
2018-Jun-22 20:25N 45°41' W 122°46'0 0.0
2018-Jun-22 19:58N 45°41' W 122°46'0 0.0
2018-Jun-22 19:28N 45°41' W 122°46'0 0.0
2018-Jun-22 18:52N 45°41' W 122°46'0 0.0
2018-Jun-22 18:28N 45°41' W 122°46'0 0.0
2018-Jun-22 17:58N 45°41' W 122°46'0 0.0
2018-Jun-22 17:28N 45°41' W 122°46'0 0.0
2018-Jun-22 16:58N 45°41' W 122°46'0 0.0
2018-Jun-22 16:28N 45°41' W 122°46'0 0.0
2018-Jun-22 15:58N 45°41' W 122°46'0 0.0
2018-Jun-22 15:25N 45°41' W 122°46'0 0.0
2018-Jun-22 14:55N 45°41' W 122°46'0 0.0
2018-Jun-22 14:22N 45°41' W 122°46'0 0.0
2018-Jun-22 13:55N 45°41' W 122°46'0 0.0
2018-Jun-22 13:25N 45°41' W 122°46'0 0.0
2018-Jun-22 12:07N 45°41' W 122°46'0 0.0
2018-Jun-22 11:58N 45°41' W 122°46'0 0.0
2018-Jun-22 11:25N 45°41' W 122°46'0 0.0
2018-Jun-22 10:58N 45°41' W 122°46'0 0.0
2018-Jun-22 10:19N 45°41' W 122°46'0 0.0
2018-Jun-22 09:55N 45°41' W 122°46'0 0.0
2018-Jun-22 09:28N 45°41' W 122°46'0 0.0
2018-Jun-22 08:22N 45°41' W 122°46'0 0.0
2018-Jun-22 07:58N 45°41' W 122°46'0 0.0
2018-Jun-22 07:28N 45°41' W 122°46'0 0.0
2018-Jun-22 06:58N 45°41' W 122°46'0 0.1
2018-Jun-22 06:28N 45°41' W 122°46'0 0.0
2018-Jun-22 05:40N 45°41' W 122°46'0 0.0
2018-Jun-22 05:28N 45°41' W 122°46'0 0.1
2018-Jun-22 04:58N 45°41' W 122°46'0 0.1
2018-Jun-22 04:28N 45°41' W 122°46'0 0.0
2018-Jun-22 03:58N 45°41' W 122°46'0 0.0
2018-Jun-22 03:25N 45°41' W 122°46'0 0.0
2018-Jun-22 02:58N 45°41' W 122°46'0 0.0
2018-Jun-22 02:28N 45°41' W 122°46'0 0.0
2018-Jun-22 01:49N 45°41' W 122°46'0 0.0
2018-Jun-22 01:28N 45°41' W 122°46'0 0.0
2018-Jun-22 00:55N 45°41' W 122°46'0 0.0
2018-Jun-22 00:28N 45°41' W 122°46'0 0.0
2018-Jun-21 23:58N 45°41' W 122°46'0 0.0
2018-Jun-21 23:28N 45°41' W 122°46'0 0.1
2018-Jun-21 22:52N 45°41' W 122°46'0 0.0
2018-Jun-21 22:25N 45°41' W 122°46'0 0.0
2018-Jun-21 21:58N 45°41' W 122°46'0 0.1
2018-Jun-21 21:22N 45°41' W 122°46'0 0.1
2018-Jun-21 20:58N 45°41' W 122°46'0 0.0
2018-Jun-21 20:25N 45°41' W 122°46'0 0.0
2018-Jun-21 19:28N 45°41' W 122°46'0 0.0
2018-Jun-21 18:58N 45°41' W 122°46'0 0.1
2018-Jun-21 18:19N 45°41' W 122°46'0 0.1
2018-Jun-21 17:55N 45°41' W 122°46'0 0.0
2018-Jun-21 17:28N 45°41' W 122°46'0 0.0
2018-Jun-21 16:58N 45°41' W 122°46'0 0.0
2018-Jun-21 16:28N 45°41' W 122°46'0 0.0
2018-Jun-21 15:58N 45°41' W 122°46'0 0.0
2018-Jun-21 15:25N 45°41' W 122°46'0 0.1
2018-Jun-21 14:55N 45°41' W 122°46'0 0.1
2018-Jun-21 14:28N 45°41' W 122°46'0 0.0
2018-Jun-21 13:58N 45°41' W 122°46'0 0.0
2018-Jun-21 13:28N 45°41' W 122°46'0 0.0
2018-Jun-21 12:58N 45°41' W 122°46'0 0.1
2018-Jun-21 12:28N 45°41' W 122°46'0 0.0
2018-Jun-21 11:43N 45°41' W 122°46'0 0.2
2018-Jun-21 11:28N 45°41' W 122°46'0 0.1
2018-Jun-21 10:55N 45°41' W 122°46'0 0.1
2018-Jun-21 10:28N 45°41' W 122°46'0 0.0
2018-Jun-21 09:58N 45°41' W 122°46'0 0.0
2018-Jun-21 09:28N 45°41' W 122°46'0 0.1
2018-Jun-21 08:49N 45°41' W 122°46'0 0.0
2018-Jun-21 08:28N 45°41' W 122°46'0 0.0
2018-Jun-21 07:58N 45°41' W 122°46'0 0.0
2018-Jun-21 07:25N 45°41' W 122°46'0 0.0
2018-Jun-21 06:55N 45°41' W 122°46'0 0.0
2018-Jun-21 06:28N 45°41' W 122°46'0 0.0
2018-Jun-21 05:43N 45°41' W 122°46'0 0.0
2018-Jun-21 05:28N 45°41' W 122°46'0 0.0
2018-Jun-21 04:58N 45°41' W 122°46'0 0.0
2018-Jun-21 04:22N 45°41' W 122°46'0 0.0
2018-Jun-21 03:58N 45°41' W 122°46'0 0.0
2018-Jun-21 02:19N 45°41' W 122°46'0 0.0
2018-Jun-21 01:55N 45°41' W 122°46'0 0.0
2018-Jun-21 01:25N 45°41' W 122°46'0 0.0
2018-Jun-21 00:55N 45°41' W 122°46'0 0.0
2018-Jun-21 00:25N 45°41' W 122°46'0 0.0
2018-Jun-20 23:55N 45°41' W 122°46'0 0.0
2018-Jun-20 23:25N 45°41' W 122°46'0 0.0
2018-Jun-20 22:55N 45°41' W 122°46'0 0.0
2018-Jun-20 22:22N 45°41' W 122°46'0 0.0
2018-Jun-20 21:55N 45°41' W 122°46'0 0.0
2018-Jun-20 21:28N 45°41' W 122°46'0 0.0
2018-Jun-20 20:22N 45°41' W 122°46'0 0.0
2018-Jun-20 19:44N 45°41' W 122°46'0 0.0
2018-Jun-20 19:13N 45°41' W 122°46'0 0.0
2018-Jun-20 18:43N 45°41' W 122°46'0 0.0
2018-Jun-20 18:13N 45°41' W 122°46'0 0.0
2018-Jun-20 17:55N 45°41' W 122°46'0 0.0
2018-Jun-20 16:46N 45°41' W 122°46'0 0.0
2018-Jun-20 16:25N 45°41' W 122°46'0 0.0
2018-Jun-20 14:12N 45°41' W 122°46'0 0.0
2018-Jun-20 13:49N 45°41' W 122°46'0 0.0
2018-Jun-20 13:24N 45°41' W 122°46'0 0.0
2018-Jun-20 11:53N 45°41' W 122°46'0 0.0
2018-Jun-20 11:23N 45°41' W 122°46'0 0.0
2018-Jun-20 10:17N 45°41' W 122°46'0 0.0
2018-Jun-20 09:56N 45°41' W 122°46'0 0.0
2018-Jun-20 09:23N 45°41' W 122°46'0 0.0
2018-Jun-20 08:58N 45°41' W 122°46'0 0.0
2018-Jun-20 08:22N 45°41' W 122°46'0 0.0
2018-Jun-20 07:55N 45°41' W 122°46'0 0.0
2018-Jun-20 07:28N 45°41' W 122°46'0 0.1
2018-Jun-20 06:58N 45°41' W 122°46'0 0.0
2018-Jun-20 05:34N 45°41' W 122°46'0 0.1
2018-Jun-20 05:28N 45°41' W 122°46'0 0.0
2018-Jun-20 04:55N 45°41' W 122°46'0 0.0
2018-Jun-20 04:22N 45°41' W 122°46'0 0.0
2018-Jun-20 03:58N 45°41' W 122°46'0 0.0
2018-Jun-20 03:25N 45°41' W 122°46'0 0.0
2018-Jun-20 02:49N 45°41' W 122°46'0 0.0
2018-Jun-20 02:28N 45°41' W 122°46'0 0.0
2018-Jun-20 01:58N 45°41' W 122°46'0 0.0
2018-Jun-20 01:25N 45°41' W 122°46'0 0.0
2018-Jun-20 00:55N 45°41' W 122°46'0 0.0
2018-Jun-20 00:19N 45°41' W 122°46'0 0.0
2018-Jun-19 23:58N 45°41' W 122°46'0 0.0
2018-Jun-19 23:28N 45°41' W 122°46'0 0.0
2018-Jun-19 22:55N 45°41' W 122°46'0 0.0
2018-Jun-19 22:22N 45°41' W 122°46'0 0.0
2018-Jun-19 21:55N 45°41' W 122°46'0 0.0
2018-Jun-19 21:25N 45°41' W 122°46'0 0.0
2018-Jun-19 20:52N 45°41' W 122°46'0 0.0
2018-Jun-19 20:28N 45°41' W 122°46'0 0.0
2018-Jun-19 19:58N 45°41' W 122°46'0 0.0
2018-Jun-19 19:28N 45°41' W 122°46'0 0.0
2018-Jun-19 18:58N 45°41' W 122°46'0 0.0
2018-Jun-19 18:28N 45°41' W 122°46'0 0.0
2018-Jun-19 17:43N 45°41' W 122°46'0 0.0
2018-Jun-19 17:28N 45°41' W 122°46'0 0.0
2018-Jun-19 16:52N 45°41' W 122°46'0 0.0
2018-Jun-19 16:04N 45°41' W 122°46'0 0.0
2018-Jun-19 15:52N 45°41' W 122°46'0 0.0
2018-Jun-19 15:13N 45°41' W 122°46'0 0.0
2018-Jun-19 14:58N 45°41' W 122°46'0 0.0
2018-Jun-19 14:19N 45°41' W 122°46'0 0.0
2018-Jun-19 13:40N 45°41' W 122°46'0 0.0
2018-Jun-19 13:28N 45°41' W 122°46'0 0.0
2018-Jun-19 12:55N 45°41' W 122°46'0 0.0
2018-Jun-19 12:22N 45°41' W 122°46'0 0.0
2018-Jun-19 11:49N 45°41' W 122°46'0 0.0
2018-Jun-19 11:19N 45°41' W 122°46'0 0.0
2018-Jun-19 10:55N 45°41' W 122°46'0 0.0
2018-Jun-19 10:22N 45°41' W 122°46'0 0.0
2018-Jun-19 09:52N 45°41' W 122°46'0 0.0
2018-Jun-19 09:28N 45°41' W 122°46'0 0.0
2018-Jun-19 08:58N 45°41' W 122°46'0 0.0
2018-Jun-19 08:25N 45°41' W 122°46'0 0.0
2018-Jun-19 07:58N 45°41' W 122°46'0 0.0
2018-Jun-19 07:28N 45°41' W 122°46'0 0.0
2018-Jun-19 06:58N 45°41' W 122°46'0 0.0
2018-Jun-19 06:28N 45°41' W 122°46'0 0.1
2018-Jun-19 05:58N 45°41' W 122°46'0 0.1
2018-Jun-19 05:28N 45°41' W 122°46'0 0.1
2018-Jun-19 04:58N 45°41' W 122°46'0 0.0
2018-Jun-19 04:28N 45°41' W 122°46'0 0.1
2018-Jun-19 03:58N 45°41' W 122°46'0 0.0
2018-Jun-19 03:28N 45°41' W 122°46'0 0.0
2018-Jun-19 02:49N 45°41' W 122°46'0 0.0
2018-Jun-19 02:28N 45°41' W 122°46'0 0.0
2018-Jun-19 01:55N 45°41' W 122°46'0 0.0
2018-Jun-19 01:28N 45°41' W 122°46'0 0.0
2018-Jun-19 00:58N 45°41' W 122°46'0 0.0
2018-Jun-19 00:28N 45°41' W 122°46'0 0.0
2018-Jun-18 23:52N 45°41' W 122°46'0 0.0
2018-Jun-18 23:25N 45°41' W 122°46'0 0.0
2018-Jun-18 22:58N 45°41' W 122°46'0 0.0
2018-Jun-18 22:25N 45°41' W 122°46'0 0.0
2018-Jun-18 21:58N 45°41' W 122°46'0 0.0
2018-Jun-18 21:13N 45°41' W 122°46'0 0.0
2018-Jun-18 20:55N 45°41' W 122°46'0 0.0
2018-Jun-18 20:28N 45°41' W 122°46'0 0.0
2018-Jun-18 19:55N 45°41' W 122°46'0 0.0
2018-Jun-18 19:28N 45°41' W 122°46'0 0.0
2018-Jun-18 18:58N 45°41' W 122°46'0 0.0
2018-Jun-18 18:25N 45°41' W 122°46'0 0.0
2018-Jun-18 17:58N 45°41' W 122°46'0 0.0
2018-Jun-18 17:13N 45°41' W 122°46'0 0.0
2018-Jun-18 16:55N 45°41' W 122°46'0 0.0
2018-Jun-18 16:28N 45°41' W 122°46'0 0.0
2018-Jun-18 15:55N 45°41' W 122°46'0 0.0
2018-Jun-18 15:28N 45°41' W 122°46'0 0.0
2018-Jun-18 14:49N 45°41' W 122°46'0 0.0
2018-Jun-18 14:22N 45°41' W 122°46'0 0.0
2018-Jun-18 13:58N 45°41' W 122°46'0 0.0
2018-Jun-18 13:25N 45°41' W 122°46'0 0.0
2018-Jun-18 12:58N 45°41' W 122°46'0 0.0
2018-Jun-18 12:28N 45°41' W 122°46'0 0.0
2018-Jun-18 11:52N 45°41' W 122°46'0 0.0
2018-Jun-18 11:25N 45°41' W 122°46'0 0.0
2018-Jun-18 10:55N 45°41' W 122°46'0 0.0
2018-Jun-18 10:22N 45°41' W 122°46'0 0.0
2018-Jun-18 09:58N 45°41' W 122°46'0 0.0
2018-Jun-18 09:22N 45°41' W 122°46'0 0.0
2018-Jun-18 08:58N 45°41' W 122°46'0 0.0
2018-Jun-18 08:22N 45°41' W 122°46'0 0.0
2018-Jun-18 07:52N 45°41' W 122°46'0 0.0
2018-Jun-18 07:25N 45°41' W 122°46'0 0.0
2018-Jun-18 06:58N 45°41' W 122°46'0 0.0
2018-Jun-18 06:25N 45°41' W 122°46'0 0.0
2018-Jun-18 05:58N 45°41' W 122°46'0 0.0
2018-Jun-18 05:25N 45°41' W 122°46'0 0.0
2018-Jun-18 04:58N 45°41' W 122°46'0 0.0
2018-Jun-18 04:28N 45°41' W 122°46'0 0.0
2018-Jun-18 03:58N 45°41' W 122°46'0 0.0
2018-Jun-18 03:25N 45°41' W 122°46'0 0.0
2018-Jun-18 02:58N 45°41' W 122°46'0 0.0
2018-Jun-18 02:19N 45°41' W 122°46'0 0.0
2018-Jun-18 01:55N 45°41' W 122°46'0 0.0
2018-Jun-18 01:22N 45°41' W 122°46'0 0.1
2018-Jun-18 00:58N 45°41' W 122°46'0 0.1
2018-Jun-18 00:22N 45°41' W 122°46'  

Dump ship's entire track history